Briefing drone pour Vif

Rechercher une autre localisation

Conditions de vol :


Nous sommes le : Lundi 15 avril 2024
Il est 21:20 UTC (23:20 LT)

Lever de soleil : 04:24 UTC (06:24 LT)
Coucher de soleil : 18:49 UTC (20:49 LT)

Météo

L'essentiel des conditions de vol

VIGILANCE MÉTÉO FRANCE - Isère (38)
Vigilance Jaune : Pluie-inondation / Avalanches
METAR de LFLS
LFLS 152100Z AUTO 35009KT 310V020 9999 FEW062 BKN240 13/05 Q1017

Date d'émission: 15/04/2024
Heure d'émission: 21:00 UTC
Vent: 350° (variable du 310° au 020°) pour 9 KT (17 km/h)
Visibilité horizontale: > 10 km
Plafond :
- Peu de nuages à 6200ft (1890m)
- Nuages morcelés à 24000ft (7315m)
Température: 13 °C
Point de rosée: 5 °C
Humidité: 58%
Pression (QNH): 1017 hPa
TAF de LFLS
LFLS 151916Z 1519/1615 CNL

Conditions prévues :

Heure d'émission : Bulletin éffectué le 15 à 19:00 UTC
Prévision : Valide du 15 a 19:00 UTC au 16 a 15:00 UTC
Nuages : à 0ft (0 m)
WEBCAM POUR VIF

Réglementation

Voler en sécurité

CARTES AERONAUTIQUE 1/500.000
CARTE AZBA (Reseau basse altitude)
CARTES VAC (LFLS)
SUP AIP




Chargement des AIP...
NOTAM (VIF + Terrain à proximité / FIR )




Chargement des NOTAMS...
CONTACT PREFECTURE 38
Isère (38) : [email protected]


Avertissement : Les données mises à disposition sont indicatives. Oxygène Drone ne pourra être tenu responsable de dégâts causés aux biens et aux personnes.